Time;durP1;ratioP1;P1;durP2;ratioP2;P2;SDS_P1;SDS_P2;PMS_P1;PMS_P2;Temp;Humidity;BMP_temperature;BMP_pressure;BME280_temperature;BME280_humidity;BME280_pressure;Samples;Min_cycle;Max_cycle;Signal;HPM_P1;HPM_P2
2023/10/03 00:00:50;;;;;;;;;;;;;;;19.68;50.16;100511.59;2493356;27;19937;-75
2023/10/03 00:01:00;;;;;;;;;;;;;;;19.68;50.27;100506.31;356052;27;886;-75
2023/10/03 00:01:11;;;;;;;;;;;;;;;19.68;50.07;100511.59;356263;27;866;-75
2023/10/03 00:01:21;;;;;;;;;;;;;;;19.68;50.13;100513.41;353145;28;1326;-75
2023/10/03 00:01:36;;;;;;;;;;;;;;;19.66;50.33;100512.66;350681;28;1291;-75
2023/10/03 00:01:46;;;;;;;;;;;;;;;19.64;50.33;100509.25;350428;28;917;-75
2023/10/03 00:02:00;;;;;;;;;;;;;;;19.64;50.22;100511.91;347384;28;1420;-75
2023/10/03 00:02:11;;;;;;;;;;;;;;;19.61;50.67;100510.28;346192;28;1342;-76
2023/10/03 00:02:21;;;;;;;;;;;;;;;19.60;50.36;100509.44;346254;28;1328;-76
2023/10/03 00:02:32;;;;;;;;;;;;;;;19.60;50.75;100509.44;348651;28;1069;-75
2023/10/03 00:02:43;;;;;;;;;;;;;;;19.62;50.61;100512.00;350382;28;887;-75
2023/10/03 00:02:55;;;;;;;;;;;;;;;19.60;50.38;100512.09;350569;28;1225;-75
2023/10/03 00:03:08;;;;;;;;;;;;;;;19.61;50.78;100510.28;348830;28;1042;-75
2023/10/03 00:03:19;;;;;;;;;;;;;;;19.63;50.52;100511.06;348602;28;1505;-75
2023/10/03 00:03:29;;;;;;;;;;;;;;;19.64;50.45;100509.25;346174;28;1684;-75
2023/10/03 00:03:40;;;;;;;;;;;;;;;19.64;50.66;100506.59;347639;28;1564;-75
2023/10/03 00:03:50;;;;;;;;;;;;;;;19.64;50.59;100506.59;347723;28;855;-75
2023/10/03 00:04:00;;;;;;;;;;;;;;;19.64;50.75;100509.25;346118;28;1213;-75
2023/10/03 00:04:11;;;;;;;;;;;;;;;19.64;50.87;100509.25;349060;28;1602;-75
2023/10/03 00:04:21;;;;;;;;;;;;;;;19.64;51.16;100511.91;349060;28;1310;-75
2023/10/03 00:04:31;;;;;;;;;;;;;;;19.65;50.90;100508.28;349658;28;800;-75
2023/10/03 00:04:42;;;;;;;;;;;;;;;19.65;51.07;100510.94;350196;28;1110;-76
2023/10/03 00:04:52;;;;;;;;;;;;;;;19.66;50.80;100510.00;349111;28;1310;-75
2023/10/03 00:05:03;;;;;;;;;;;;;;;19.66;50.88;100508.19;348579;28;1276;-75
2023/10/03 00:05:22;;;;;;;;;;;;;;;19.67;50.65;100509.06;350061;28;1233;-75
2023/10/03 00:05:32;;;;;;;;;;;;;;;19.67;50.88;100509.06;350381;28;836;-75
2023/10/03 00:05:45;;;;;;;;;;;;;;;19.69;50.77;100512.47;350564;28;764;-75
2023/10/03 00:05:55;;;;;;;;;;;;;;;19.70;50.65;100511.50;350429;28;1434;-75
2023/10/03 00:06:05;;;;;;;;;;;;;;;19.67;50.99;100509.06;348880;28;796;-75
2023/10/03 00:06:16;;;;;;;;;;;;;;;19.65;51.06;100513.59;347539;28;1295;-76
2023/10/03 00:06:26;;;;;;;;;;;;;;;19.63;50.73;100507.53;347430;28;1335;-75
2023/10/03 00:06:37;;;;;;;;;;;;;;;19.61;50.76;100515.59;347675;28;1212;-75
2023/10/03 00:06:47;;;;;;;;;;;;;;;19.59;51.15;100513.03;350914;28;1251;-75
2023/10/03 00:06:57;;;;;;;;;;;;;;;19.60;50.85;100506.78;348758;28;1341;-75
2023/10/03 00:07:07;;;;;;;;;;;;;;;19.60;50.94;100509.44;349106;28;838;-75
2023/10/03 00:07:18;;;;;;;;;;;;;;;19.60;51.06;100514.75;350138;28;1204;-74
2023/10/03 00:07:28;;;;;;;;;;;;;;;19.60;51.03;100514.75;349441;28;1156;-74
2023/10/03 00:07:38;;;;;;;;;;;;;;;19.61;41.21;100510.28;350465;28;654;-75
2023/10/03 00:07:49;;;;;;;;;;;;;;;19.62;51.17;100511.16;348972;28;863;-75
2023/10/03 00:08:00;;;;;;;;;;;;;;;19.63;51.02;100515.50;347318;28;1199;-75
2023/10/03 00:08:10;;;;;;;;;;;;;;;19.60;51.06;100504.13;346123;28;1560;-76
2023/10/03 00:08:22;;;;;;;;;;;;;;;19.62;51.27;100511.16;347696;28;1222;-76
2023/10/03 00:08:32;;;;;;;;;;;;;;;19.60;51.20;100504.13;348842;28;880;-75
2023/10/03 00:08:45;;;;;;;;;;;;;;;19.62;51.10;100511.16;344141;28;1241;-75
2023/10/03 00:08:56;;;;;;;;;;;;;;;19.60;51.12;100509.44;339889;28;7927;-75
2023/10/03 00:09:06;;;;;;;;;;;;;;;19.62;50.83;100512.00;343246;28;2935;-75
2023/10/03 00:09:16;;;;;;;;;;;;;;;19.64;51.17;100510.09;341699;28;1334;-75
2023/10/03 00:09:27;;;;;;;;;;;;;;;19.64;50.99;100511.91;341803;28;2853;-75
2023/10/03 00:09:37;;;;;;;;;;;;;;;19.64;51.04;100503.94;338141;29;1915;-75
2023/10/03 00:09:48;;;;;;;;;;;;;;;19.65;50.80;100510.94;341816;28;1263;-75
2023/10/03 00:09:58;;;;;;;;;;;;;;;19.64;51.00;100512.75;340794;28;1391;-75
2023/10/03 00:10:09;;;;;;;;;;;;;;;19.65;51.01;100505.63;339714;29;855;-75
2023/10/03 00:10:19;;;;;;;;;;;;;;;19.64;50.79;100503.94;339589;29;817;-75
2023/10/03 00:10:30;;;;;;;;;;;;;;;19.66;51.21;100512.66;340166;29;1042;-75
2023/10/03 00:10:41;;;;;;;;;;;;;;;19.64;51.02;100509.25;337590;29;2150;-75
2023/10/03 00:10:51;;;;;;;;;;;;;;;19.64;51.08;100509.25;334521;29;1376;-75
2023/10/03 00:11:01;;;;;;;;;;;;;;;19.61;51.09;100510.28;331931;29;1866;-75
2023/10/03 00:11:18;;;;;;;;;;;;;;;19.63;51.22;100512.84;331361;29;2052;-75
2023/10/03 00:11:29;;;;;;;;;;;;;;;19.61;50.92;100510.28;332871;29;1770;-76
2023/10/03 00:11:39;;;;;;;;;;;;;;;19.61;51.18;100510.28;329236;29;1726;-75
2023/10/03 00:11:50;;;;;;;;;;;;;;;19.60;50.90;100513.91;329354;30;835;-75
2023/10/03 00:12:00;;;;;;;;;;;;;;;19.59;51.09;100509.53;329156;29;1435;-75
2023/10/03 00:12:11;;;;;;;;;;;;;;;19.58;51.30;100511.34;328286;30;1433;-75
2023/10/03 00:12:22;;;;;;;;;;;;;;;19.58;51.31;100511.34;329435;30;846;-75
2023/10/03 00:12:32;;;;;;;;;;;;;;;19.58;50.89;100505.19;330114;29;1742;-75
2023/10/03 00:12:43;;;;;;;;;;;;;;;19.57;51.03;100506.13;328139;29;1797;-75
2023/10/03 00:12:54;;;;;;;;;;;;;;;19.56;51.37;100507.94;327005;30;1437;-75
2023/10/03 00:13:07;;;;;;;;;;;;;;;19.56;51.06;100513.25;331224;29;2047;-74
2023/10/03 00:13:19;;;;;;;;;;;;;;;19.54;51.17;100504.53;329696;29;2437;-74
2023/10/03 00:13:31;;;;;;;;;;;;;;;19.54;51.11;100509.81;325913;30;2921;-74
2023/10/03 00:13:41;;;;;;;;;;;;;;;19.52;51.44;100506.41;324492;30;2436;-74
2023/10/03 00:13:51;;;;;;;;;;;;;;;19.52;51.37;100511.72;327150;30;610;-74
2023/10/03 00:14:07;;;;;;;;;;;;;;;19.53;51.17;100507.28;322670;30;2384;-74
2023/10/03 00:14:18;;;;;;;;;;;;;;;19.53;51.53;100508.13;325051;30;1733;-74
2023/10/03 00:14:28;;;;;;;;;;;;;;;19.54;51.21;100509.81;324869;30;1255;-74
2023/10/03 00:14:39;;;;;;;;;;;;;;;19.54;51.43;100509.81;325614;30;966;-74
2023/10/03 00:14:49;;;;;;;;;;;;;;;19.53;51.05;100505.47;321986;30;2277;-74
2023/10/03 00:14:59;;;;;;;;;;;;;;;19.53;51.46;100513.44;322215;30;2613;-74
2023/10/03 00:15:12;;;;;;;;;;;;;;;19.53;51.21;100512.59;323034;30;2843;-74
2023/10/03 00:15:26;;;;;;;;;;;;;;;19.51;51.31;100504.72;324626;30;1330;-75
2023/10/03 00:15:39;;;;;;;;;;;;;;;19.49;51.33;100517.22;319817;30;1198;-75
2023/10/03 00:15:50;;;;;;;;;;;;;;;19.47;51.33;100508.50;318607;31;1318;-75
2023/10/03 00:16:00;;;;;;;;;;;;;;;19.47;51.59;100500.53;315204;31;3360;-74
2023/10/03 00:16:11;;;;;;;;;;;;;;;19.48;51.42;100507.56;314983;31;2969;-74
2023/10/03 00:16:22;;;;;;;;;;;;;;;19.49;51.32;100517.22;317437;31;1374;-74
2023/10/03 00:16:33;;;;;;;;;;;;;;;19.49;51.39;100506.63;319193;30;2169;-74
2023/10/03 00:16:44;;;;;;;;;;;;;;;19.51;51.20;100506.50;318389;30;2182;-74
2023/10/03 00:16:55;;;;;;;;;;;;;;;19.51;51.38;100510.03;319067;30;2748;-74
2023/10/03 00:17:05;;;;;;;;;;;;;;;19.51;51.79;100503.84;316174;31;1371;-74
2023/10/03 00:17:15;;;;;;;;;;;;;;;19.52;51.75;100508.22;311834;31;3735;-74
2023/10/03 00:17:25;;;;;;;;;;;;;;;19.52;51.44;100506.41;310873;31;4582;-74
2023/10/03 00:17:36;;;;;;;;;;;;;;;19.53;51.69;100504.63;317505;31;1211;-74
2023/10/03 00:17:46;;;;;;;;;;;;;;;19.52;51.76;100503.75;311542;31;4081;-74
2023/10/03 00:17:56;;;;;;;;;;;;;;;19.52;51.75;100509.06;309712;31;4627;-74
2023/10/03 00:18:06;;;;;;;;;;;;;;;19.52;51.67;100511.72;310043;31;2965;-74
2023/10/03 00:18:17;;;;;;;;;;;;;;;19.52;51.57;100511.72;307565;31;4883;-75
2023/10/03 00:18:28;;;;;;;;;;;;;;;19.52;51.67;100506.41;308958;31;4144;-75
2023/10/03 00:18:39;;;;;;;;;;;;;;;19.52;51.97;100506.41;310567;31;3465;-75
2023/10/03 00:18:49;;;;;;;;;;;;;;;19.55;51.66;100506.22;308192;31;3033;-76
2023/10/03 00:19:00;;;;;;;;;;;;;;;19.55;51.67;100511.53;308217;31;3161;-73
2023/10/03 00:19:10;;;;;;;;;;;;;;;19.56;51.66;100507.06;306578;32;3858;-74
2023/10/03 00:19:20;;;;;;;;;;;;;;;19.56;51.62;100507.94;304320;32;1216;-75
2023/10/03 00:19:31;;;;;;;;;;;;;;;19.57;51.72;100504.31;302716;32;5359;-75
2023/10/03 00:19:41;;;;;;;;;;;;;;;19.56;51.39;100509.72;300292;32;7605;-75
2023/10/03 00:19:51;;;;;;;;;;;;;;;19.57;51.36;100514.94;301206;32;1217;-75
2023/10/03 00:20:04;;;;;;;;;;;;;;;19.57;51.54;100509.63;295665;32;6959;-74
2023/10/03 00:20:16;;;;;;;;;;;;;;;19.55;51.58;100506.22;294453;33;7421;-74
2023/10/03 00:20:27;;;;;;;;;;;;;;;19.57;51.72;100509.63;294151;33;6182;-74
2023/10/03 00:20:37;;;;;;;;;;;;;;;19.57;51.76;100503.47;295175;33;872;-75
2023/10/03 00:20:47;;;;;;;;;;;;;;;19.56;51.65;100505.28;294930;33;5819;-75
2023/10/03 00:20:58;;;;;;;;;;;;;;;19.58;51.45;100515.81;293358;33;4276;-75
2023/10/03 00:21:08;;;;;;;;;;;;;;;19.58;51.70;100516.66;291242;33;1579;-75
2023/10/03 00:21:18;;;;;;;;;;;;;;;19.56;51.37;100507.94;290933;33;4563;-75
2023/10/03 00:21:28;;;;;;;;;;;;;;;19.56;51.36;100513.25;288726;33;5716;-75
2023/10/03 00:21:39;;;;;;;;;;;;;;;19.56;51.40;100507.94;286949;34;1435;-75
2023/10/03 00:21:49;;;;;;;;;;;;;;;19.57;51.32;100508.78;287544;34;8159;-75
2023/10/03 00:22:00;;;;;;;;;;;;;;;19.56;51.61;100507.94;286624;34;9332;-76
2023/10/03 00:22:10;;;;;;;;;;;;;;;19.57;51.61;100514.94;286151;34;9985;-75
2023/10/03 00:22:20;;;;;;;;;;;;;;;19.56;51.74;100512.38;289316;34;1026;-75
2023/10/03 00:22:30;;;;;;;;;;;;;;;19.56;51.54;100507.94;283125;34;10382;-75
2023/10/03 00:25:02;;;;;;;;;;;;;;;19.45;51.85;100510.41;2475370;27;19933;-75
2023/10/03 00:25:19;;;;;;;;;;;;;;;19.45;51.82;100504.25;351615;28;1075;-75
2023/10/03 00:25:30;;;;;;;;;;;;;;;19.43;51.92;100507.00;350473;28;879;-75
2023/10/03 00:25:41;;;;;;;;;;;;;;;19.40;51.83;100512.50;350373;28;1262;-75
2023/10/03 00:25:54;;;;;;;;;;;;;;;19.38;51.74;100511.75;348874;28;1327;-74
2023/10/03 00:26:07;;;;;;;;;;;;;;;19.39;52.15;100504.63;347378;28;1307;-74
2023/10/03 00:26:17;;;;;;;;;;;;;;;19.37;51.93;100512.69;347640;28;776;-75
2023/10/03 00:26:31;;;;;;;;;;;;;;;19.37;52.04;100507.38;349588;28;1215;-75
2023/10/03 00:26:44;;;;;;;;;;;;;;;19.38;52.15;100510.88;347797;28;820;-75
2023/10/03 00:26:54;;;;;;;;;;;;;;;19.38;52.01;100508.22;346757;28;1381;-75
2023/10/03 00:27:05;;;;;;;;;;;;;;;19.36;52.13;100503.03;346186;28;1015;-75
2023/10/03 00:27:15;;;;;;;;;;;;;;;19.36;52.11;100500.38;344919;28;896;-75
2023/10/03 00:27:26;;;;;;;;;;;;;;;19.36;52.21;100508.31;344885;28;872;-75
2023/10/03 00:27:37;;;;;;;;;;;;;;;19.37;52.00;100510.03;346282;28;1610;-75
2023/10/03 00:27:49;;;;;;;;;;;;;;;19.39;51.79;100505.47;344176;28;2900;-74
2023/10/03 00:27:59;;;;;;;;;;;;;;;19.40;51.92;100506.34;341042;28;5283;-75
2023/10/03 00:28:10;;;;;;;;;;;;;;;19.41;51.90;100508.03;341581;28;5306;-75
2023/10/03 00:28:20;;;;;;;;;;;;;;;19.41;51.87;100508.03;342071;28;1447;-75
2023/10/03 00:28:32;;;;;;;;;;;;;;;19.41;51.79;100505.38;341659;28;2986;-75
2023/10/03 00:28:42;;;;;;;;;;;;;;;19.41;51.94;100513.34;342773;28;1334;-75
2023/10/03 00:28:52;;;;;;;;;;;;;;;19.41;51.86;100508.03;340891;28;1228;-75
2023/10/03 00:29:04;;;;;;;;;;;;;;;19.40;51.86;100507.19;343605;28;845;-76
2023/10/03 00:29:23;;;;;;;;;;;;;;;19.42;52.06;100515.91;345912;28;1401;-76
2023/10/03 00:29:34;;;;;;;;;;;;;;;19.42;51.93;100507.94;343095;28;1753;-75
2023/10/03 00:29:45;;;;;;;;;;;;;;;19.42;51.92;100504.44;341576;28;1155;-75
2023/10/03 00:29:55;;;;;;;;;;;;;;;19.41;51.97;100505.38;341322;28;1516;-75
2023/10/03 00:30:06;;;;;;;;;;;;;;;19.40;52.04;100504.53;342175;28;782;-75
2023/10/03 00:30:19;;;;;;;;;;;;;;;19.41;52.00;100508.91;343928;28;1373;-75
2023/10/03 00:30:30;;;;;;;;;;;;;;;19.40;52.06;100501.03;344884;28;821;-75
2023/10/03 00:30:40;;;;;;;;;;;;;;;19.40;51.83;100504.53;342581;28;1225;-75
2023/10/03 00:30:51;;;;;;;;;;;;;;;19.41;52.06;100508.91;344952;28;865;-75
2023/10/03 00:31:03;;;;;;;;;;;;;;;19.40;52.04;100501.88;344778;28;1316;-75
2023/10/03 00:31:14;;;;;;;;;;;;;;;19.41;52.05;100508.03;345414;28;1343;-75
2023/10/03 00:31:24;;;;;;;;;;;;;;;19.40;51.95;100511.66;345432;28;1275;-75
2023/10/03 00:31:34;;;;;;;;;;;;;;;19.39;52.15;100505.47;344924;28;1315;-75
2023/10/03 00:31:44;;;;;;;;;;;;;;;19.40;51.91;100507.19;342059;28;1087;-75
2023/10/03 00:31:58;;;;;;;;;;;;;;;19.41;52.09;100510.69;338852;29;1378;-75
2023/10/03 00:32:09;;;;;;;;;;;;;;;19.42;52.26;100513.25;339662;29;948;-75
2023/10/03 00:32:19;;;;;;;;;;;;;;;19.41;52.08;100503.59;339694;29;1011;-75
2023/10/03 00:32:30;;;;;;;;;;;;;;;19.41;51.98;100497.41;340847;28;1293;-75
2023/10/03 00:32:44;;;;;;;;;;;;;;;19.42;52.07;100507.09;340658;29;1357;-75
2023/10/03 00:32:54;;;;;;;;;;;;;;;19.42;52.33;100507.09;342691;28;1499;-75
2023/10/03 00:33:05;;;;;;;;;;;;;;;19.42;52.22;100499.97;342057;28;1331;-75
2023/10/03 00:33:17;;;;;;;;;;;;;;;19.41;52.12;100506.25;339505;28;1176;-75
2023/10/03 00:33:27;;;;;;;;;;;;;;;19.41;52.15;100497.41;340390;28;1371;-74
2023/10/03 00:33:37;;;;;;;;;;;;;;;19.41;52.55;100502.72;341047;28;1489;-75
2023/10/03 00:33:48;;;;;;;;;;;;;;;19.40;52.24;100507.19;342124;28;1205;-75
2023/10/03 00:33:58;;;;;;;;;;;;;;;19.41;52.26;100503.59;340070;29;1907;-75
2023/10/03 00:34:14;;;;;;;;;;;;;;;19.40;52.19;100504.53;339504;29;1301;-75
2023/10/03 00:34:24;;;;;;;;;;;;;;;19.40;52.45;100503.69;341204;28;901;-75
2023/10/03 00:34:36;;;;;;;;;;;;;;;19.40;52.18;100504.53;339312;29;1254;-75
2023/10/03 00:34:46;;;;;;;;;;;;;;;19.39;52.34;100500.16;335737;29;826;-75
2023/10/03 00:34:56;;;;;;;;;;;;;;;19.39;52.40;100502.81;336717;29;1425;-76
2023/10/03 00:35:08;;;;;;;;;;;;;;;19.35;52.21;100503.97;337877;29;1484;-76
2023/10/03 00:35:21;;;;;;;;;;;;;;;19.37;52.31;100501.22;336931;29;1258;-76
2023/10/03 00:35:31;;;;;;;;;;;;;;;19.37;52.34;100501.22;329509;30;1757;-76
2023/10/03 00:35:42;;;;;;;;;;;;;;;19.36;52.49;100505.66;327281;30;1973;-75
2023/10/03 00:35:53;;;;;;;;;;;;;;;19.38;52.12;100509.09;328247;29;2301;-74
2023/10/03 00:36:03;;;;;;;;;;;;;;;19.38;52.35;100503.78;327993;30;1238;-75
2023/10/03 00:36:18;;;;;;;;;;;;;;;19.37;52.26;100504.72;325814;30;1648;-75
2023/10/03 00:36:31;;;;;;;;;;;;;;;19.37;52.42;100504.72;328328;30;1255;-75
2023/10/03 00:36:41;;;;;;;;;;;;;;;19.37;52.20;100499.41;330502;29;1104;-74
2023/10/03 00:36:54;;;;;;;;;;;;;;;19.37;52.22;100502.06;330219;29;1359;-74
2023/10/03 00:37:04;;;;;;;;;;;;;;;19.36;52.10;100500.38;328138;29;3073;-74
2023/10/03 00:37:15;;;;;;;;;;;;;;;19.36;52.18;100500.38;323537;30;7945;-75
2023/10/03 00:37:25;;;;;;;;;;;;;;;19.36;52.23;100500.38;325296;29;4728;-74
2023/10/03 00:37:37;;;;;;;;;;;;;;;19.36;52.25;100503.03;324858;30;1450;-74
2023/10/03 00:37:50;;;;;;;;;;;;;;;19.37;52.19;100504.72;323171;30;5608;-74
2023/10/03 00:38:00;;;;;;;;;;;;;;;19.38;51.98;100503.78;321566;30;2369;-74
2023/10/03 00:38:14;;;;;;;;;;;;;;;19.38;52.08;100498.47;322171;30;2791;-74
2023/10/03 00:38:24;;;;;;;;;;;;;;;19.40;52.25;100501.88;323102;30;1796;-74
2023/10/03 00:38:35;;;;;;;;;;;;;;;19.40;52.00;100501.03;321040;30;1209;-75
2023/10/03 00:38:45;;;;;;;;;;;;;;;19.39;52.40;100502.81;318143;30;1429;-74
2023/10/03 00:38:56;;;;;;;;;;;;;;;19.39;52.14;100505.47;316346;31;1950;-74
2023/10/03 00:39:06;;;;;;;;;;;;;;;19.40;52.06;100501.88;316326;31;1231;-74
2023/10/03 00:39:16;;;;;;;;;;;;;;;19.40;51.94;100499.22;306450;32;1415;-75
2023/10/03 00:39:27;;;;;;;;;;;;;;;19.41;52.04;100502.72;304435;32;2765;-75
2023/10/03 00:39:37;;;;;;;;;;;;;;;19.42;52.14;100507.94;305016;31;3279;-75
2023/10/03 00:39:48;;;;;;;;;;;;;;;19.41;52.29;100506.25;306589;32;1239;-75
2023/10/03 00:39:59;;;;;;;;;;;;;;;19.40;52.43;100499.22;307070;32;2764;-74
2023/10/03 00:40:32;;;;;;;;;;;;;;;19.38;52.21;100502.91;308969;31;1359;-74
2023/10/03 00:40:48;;;;;;;;;;;;;;;19.37;52.52;100507.38;307899;31;2629;-74
2023/10/03 00:40:58;;;;;;;;;;;;;;;19.37;52.14;100504.72;308168;31;2354;-74
2023/10/03 00:41:09;;;;;;;;;;;;;;;19.37;52.40;100495.91;308032;31;3495;-75
2023/10/03 00:41:19;;;;;;;;;;;;;;;19.36;52.33;100505.66;309732;31;937;-75
2023/10/03 00:41:29;;;;;;;;;;;;;;;19.35;52.23;100503.97;308040;31;3528;-75
2023/10/03 00:41:40;;;;;;;;;;;;;;;19.35;52.33;100509.28;308622;31;4183;-75
2023/10/03 00:41:50;;;;;;;;;;;;;;;19.34;52.23;100498.75;307385;32;1691;-76
2023/10/03 00:42:02;;;;;;;;;;;;;;;19.33;52.37;100505.88;301848;32;4248;-76
2023/10/03 00:42:12;;;;;;;;;;;;;;;19.32;52.29;100498.84;300043;32;4037;-75
2023/10/03 00:42:22;;;;;;;;;;;;;;;19.32;52.35;100498.84;297718;32;4221;-75
2023/10/03 00:42:32;;;;;;;;;;;;;;;19.32;52.42;100498.84;298309;33;1403;-75
2023/10/03 00:42:46;;;;;;;;;;;;;;;19.32;52.50;100501.50;297334;32;4868;-75
2023/10/03 00:42:57;;;;;;;;;;;;;;;19.31;52.38;100498.94;296192;33;3268;-75
2023/10/03 00:43:07;;;;;;;;;;;;;;;19.32;52.56;100498.00;295337;33;3723;-75
2023/10/03 00:43:18;;;;;;;;;;;;;;;19.32;52.55;100498.84;294246;33;1232;-76
2023/10/03 00:43:28;;;;;;;;;;;;;;;19.32;52.44;100498.84;291021;33;5327;-74
2023/10/03 00:44:01;;;;;;;;;;;;;;;19.33;52.33;100499.69;289207;33;5121;-74
2023/10/03 00:44:11;;;;;;;;;;;;;;;19.36;52.55;100500.38;287378;34;6999;-75
2023/10/03 00:44:21;;;;;;;;;;;;;;;19.35;52.54;100503.97;288150;34;5776;-75
2023/10/03 00:44:32;;;;;;;;;;;;;;;19.34;52.81;100504.06;288351;34;908;-75
2023/10/03 00:44:42;;;;;;;;;;;;;;;19.34;52.60;100507.56;288206;34;5204;-75
2023/10/03 00:44:52;;;;;;;;;;;;;;;19.34;52.63;100502.25;287758;34;6067;-75
2023/10/03 00:45:03;;;;;;;;;;;;;;;19.36;52.57;100503.03;286485;34;832;-74
2023/10/03 00:45:19;;;;;;;;;;;;;;;19.37;52.50;100502.06;282809;34;4627;-74
2023/10/03 00:45:30;;;;;;;;;;;;;;;19.35;52.48;100498.66;282165;34;6406;-76
2023/10/03 00:45:40;;;;;;;;;;;;;;;19.34;52.65;100501.41;280082;34;7485;-76
2023/10/03 00:45:51;;;;;;;;;;;;;;;19.34;52.48;100502.25;280097;35;1359;-75
2023/10/03 00:47:35;;;;;;;;;;;;;;;19.32;52.89;100496.19;2486372;27;19931;-74
2023/10/03 00:47:47;;;;;;;;;;;;;;;19.31;52.71;100497.13;353272;28;922;-75
2023/10/03 00:47:58;;;;;;;;;;;;;;;19.32;52.64;100498.84;353040;28;1246;-75
2023/10/03 00:48:08;;;;;;;;;;;;;;;19.31;52.88;100497.13;351631;28;1425;-75
2023/10/03 00:48:20;;;;;;;;;;;;;;;19.31;52.72;100497.13;351792;28;1199;-74
2023/10/03 00:48:30;;;;;;;;;;;;;;;19.31;52.71;100498.94;351866;28;888;-74
2023/10/03 00:48:41;;;;;;;;;;;;;;;19.29;52.97;100499.03;351688;28;1194;-75
2023/10/03 00:48:52;;;;;;;;;;;;;;;19.28;52.78;100497.34;350493;28;824;-74
2023/10/03 00:49:09;;;;;;;;;;;;;;;19.27;52.81;100496.47;350082;28;1436;-74
2023/10/03 00:49:19;;;;;;;;;;;;;;;19.25;52.81;100500.19;347695;28;907;-74
2023/10/03 00:49:31;;;;;;;;;;;;;;;19.22;52.95;100498.56;348855;28;1464;-74
2023/10/03 00:49:43;;;;;;;;;;;;;;;19.23;52.67;100510.03;347226;28;1506;-74
2023/10/03 00:49:53;;;;;;;;;;;;;;;19.23;52.74;100502.06;345930;28;2237;-73
2023/10/03 00:50:06;;;;;;;;;;;;;;;19.23;53.02;100499.41;346280;28;804;-75
2023/10/03 00:50:20;;;;;;;;;;;;;;;19.21;52.87;100496.00;347618;28;1997;-75
2023/10/03 00:50:31;;;;;;;;;;;;;;;19.22;53.03;100503.03;347627;28;1271;-75
2023/10/03 00:50:42;;;;;;;;;;;;;;;19.20;52.84;100500.47;347609;28;1371;-74
2023/10/03 00:50:55;;;;;;;;;;;;;;;19.20;53.03;100494.31;347644;28;1259;-74
2023/10/03 00:51:06;;;;;;;;;;;;;;;19.21;53.03;100496.00;348941;28;800;-74
2023/10/03 00:51:20;;;;;;;;;;;;;;;19.20;52.95;100497.81;347461;28;1412;-74
2023/10/03 00:51:31;;;;;;;;;;;;;;;19.19;53.15;100498.75;347579;28;1004;-74
2023/10/03 00:51:44;;;;;;;;;;;;;;;19.19;52.96;100500.56;346110;28;1388;-75
2023/10/03 00:51:56;;;;;;;;;;;;;;;19.17;53.18;100497.16;346336;28;1483;-75
2023/10/03 00:52:06;;;;;;;;;;;;;;;19.18;53.22;100501.50;348612;28;1555;-74
2023/10/03 00:52:16;;;;;;;;;;;;;;;19.17;53.17;100499.78;350325;28;1250;-74
2023/10/03 00:52:26;;;;;;;;;;;;;;;19.16;53.01;100498.94;347651;28;1112;-74
2023/10/03 00:52:37;;;;;;;;;;;;;;;19.17;52.97;100494.50;347446;28;1086;-74
2023/10/03 00:52:49;;;;;;;;;;;;;;;19.17;53.24;100502.44;346362;28;789;-75
2023/10/03 00:53:00;;;;;;;;;;;;;;;19.18;53.12;100496.19;344826;28;797;-74
2023/10/03 00:53:12;;;;;;;;;;;;;;;19.18;53.30;100496.19;346325;28;1237;-74
2023/10/03 00:53:23;;;;;;;;;;;;;;;19.18;53.24;100501.50;348222;28;768;-74
2023/10/03 00:53:35;;;;;;;;;;;;;;;19.19;53.08;100495.25;348875;28;1067;-74
2023/10/03 00:53:46;;;;;;;;;;;;;;;19.19;53.08;100503.22;345018;28;1423;-74
2023/10/03 00:53:57;;;;;;;;;;;;;;;19.18;53.50;100498.84;345490;28;1069;-74
2023/10/03 00:54:07;;;;;;;;;;;;;;;19.17;53.46;100499.78;347662;28;847;-74
2023/10/03 00:54:18;;;;;;;;;;;;;;;19.15;53.49;100491.94;347636;28;1074;-74
2023/10/03 00:54:30;;;;;;;;;;;;;;;19.17;53.24;100494.50;347547;28;1289;-74
2023/10/03 00:54:41;;;;;;;;;;;;;;;19.17;53.25;100505.09;346159;28;1693;-75
2023/10/03 00:54:52;;;;;;;;;;;;;;;19.18;53.25;100498.84;344958;28;813;-74
2023/10/03 00:55:03;;;;;;;;;;;;;;;19.19;53.25;100497.91;347243;28;895;-75
2023/10/03 00:55:14;;;;;;;;;;;;;;;19.19;53.17;100500.56;343433;28;1228;-75
2023/10/03 00:55:27;;;;;;;;;;;;;;;19.18;53.36;100494.41;342159;28;1208;-75
2023/10/03 00:55:40;;;;;;;;;;;;;;;19.19;53.34;100497.91;341387;28;4044;-75
2023/10/03 00:55:56;;;;;;;;;;;;;;;19.20;53.27;100494.31;339195;29;5331;-74
2023/10/03 00:56:11;;;;;;;;;;;;;;;19.22;52.93;100501.22;334278;29;1282;-74
2023/10/03 00:56:22;;;;;;;;;;;;;;;19.23;52.79;100496.75;334480;29;1911;-74
2023/10/03 00:56:32;;;;;;;;;;;;;;;19.22;53.13;100497.72;335415;29;1312;-74
2023/10/03 00:56:43;;;;;;;;;;;;;;;19.24;53.06;100501.97;334294;29;1574;-74
2023/10/03 00:56:53;;;;;;;;;;;;;;;19.25;53.10;100497.53;335703;29;861;-74
2023/10/03 00:57:04;;;;;;;;;;;;;;;19.25;53.35;100501.03;337409;29;1633;-74
2023/10/03 00:57:15;;;;;;;;;;;;;;;19.22;53.22;100500.38;340340;29;1355;-74
2023/10/03 00:57:25;;;;;;;;;;;;;;;19.21;53.15;100499.50;338216;29;1424;-74
2023/10/03 00:57:35;;;;;;;;;;;;;;;19.21;52.92;100499.50;338636;29;1256;-74
2023/10/03 00:57:46;;;;;;;;;;;;;;;19.21;53.06;100498.66;334777;29;1849;-75
2023/10/03 00:58:28;;;;;;;;;;;;;;;19.22;53.22;100497.72;330886;29;779;-74
2023/10/03 00:58:41;;;;;;;;;;;;;;;19.22;53.18;100500.38;329412;29;1332;-75
2023/10/03 00:58:51;;;;;;;;;;;;;;;19.20;53.44;100500.47;331961;29;1266;-75
2023/10/03 00:59:02;;;;;;;;;;;;;;;19.20;53.16;100504.91;332838;29;874;-75
2023/10/03 00:59:13;;;;;;;;;;;;;;;19.18;53.33;100501.50;330293;29;1374;-75
2023/10/03 00:59:24;;;;;;;;;;;;;;;19.18;53.38;100501.50;329240;30;1555;-75
2023/10/03 00:59:34;;;;;;;;;;;;;;;19.17;53.28;100505.09;327070;30;788;-75
2023/10/03 00:59:44;;;;;;;;;;;;;;;19.15;53.53;100501.69;323233;30;2103;-75
2023/10/03 00:59:57;;;;;;;;;;;;;;;19.13;53.17;100498.28;324011;29;2097;-75
2023/10/03 01:00:17;;;;;;;;;;;;;;;19.13;53.28;100495.63;322198;30;1260;-75
2023/10/03 01:00:28;;;;;;;;;;;;;;;19.14;53.46;100500.00;321039;30;2413;-75
2023/10/03 01:00:43;;;;;;;;;;;;;;;19.14;53.38;100498.19;318539;31;2234;-75
2023/10/03 01:00:57;;;;;;;;;;;;;;;19.14;53.20;100494.69;317501;31;1244;-75
2023/10/03 01:01:09;;;;;;;;;;;;;;;19.15;53.29;100496.38;314155;31;905;-75
2023/10/03 01:01:19;;;;;;;;;;;;;;;19.15;53.15;100501.69;309734;31;1526;-75
2023/10/03 01:01:33;;;;;;;;;;;;;;;19.14;53.49;100500.84;309464;31;1603;-75
2023/10/03 01:01:46;;;;;;;;;;;;;;;19.13;53.44;100503.59;312380;31;2456;-75
2023/10/03 01:02:03;;;;;;;;;;;;;;;19.12;53.11;100492.13;311683;31;3077;-75
2023/10/03 01:02:13;;;;;;;;;;;;;;;19.11;53.20;100495.72;311949;31;2902;-75
2023/10/03 01:02:23;;;;;;;;;;;;;;;19.09;53.52;100499.41;312834;31;1391;-74
2023/10/03 01:02:36;;;;;;;;;;;;;;;19.09;53.23;100499.41;312318;31;3272;-74
2023/10/03 01:02:47;;;;;;;;;;;;;;;19.07;53.26;100501.31;312871;31;2802;-74
2023/10/03 01:02:57;;;;;;;;;;;;;;;19.07;53.35;100499.50;311830;31;3145;-75
2023/10/03 01:03:27;;;;;;;;;;;;;;;19.08;53.50;100500.38;311201;31;1528;-75
2023/10/03 01:03:37;;;;;;;;;;;;;;;19.07;53.17;100502.16;309658;31;871;-75
2023/10/03 01:03:48;;;;;;;;;;;;;;;19.06;53.56;100503.13;308962;31;2387;-75
2023/10/03 01:04:00;;;;;;;;;;;;;;;19.06;53.46;100491.69;306976;32;3770;-74
2023/10/03 01:04:18;;;;;;;;;;;;;;;19.06;53.68;100502.28;304544;32;4442;-74
2023/10/03 01:04:30;;;;;;;;;;;;;;;19.05;53.62;100505.88;301241;32;4413;-74
2023/10/03 01:04:40;;;;;;;;;;;;;;;19.04;53.39;100504.19;295554;33;4870;-74
2023/10/03 01:04:52;;;;;;;;;;;;;;;19.02;53.44;100500.78;290596;33;3243;-74
2023/10/03 01:05:03;;;;;;;;;;;;;;;19.03;53.39;100502.47;290572;33;7207;-74
2023/10/03 01:05:16;;;;;;;;;;;;;;;19.01;53.61;100504.38;292030;33;4411;-74
2023/10/03 01:05:26;;;;;;;;;;;;;;;19.02;53.53;100500.78;292995;33;3468;-74
2023/10/03 01:05:36;;;;;;;;;;;;;;;19.03;53.73;100494.53;296085;33;1229;-74